Time;durP1;ratioP1;P1;durP2;ratioP2;P2;SDS_P1;SDS_P2;PMS_P1;PMS_P2;Temp;Humidity;BMP_temperature;BMP_pressure;BME280_temperature;BME280_humidity;BME280_pressure;Samples;Min_cycle;Max_cycle;Signal;HPM_P1;HPM_P2
2024/03/28 00:01:43;;;;;;;19.58;5.60;;;;;;;;;;5066843;28;20384;-45
2024/03/28 00:04:08;;;;;;;22.42;5.75;;;;;;;;;;5065765;28;20119;-43
2024/03/28 00:06:34;;;;;;;28.00;6.70;;;;;;;;;;5045959;28;20036;-43
2024/03/28 00:09:00;;;;;;;20.50;6.25;;;;;;;;;;5029971;28;20025;-43
2024/03/28 00:11:26;;;;;;;26.60;7.35;;;;;;;;;;5059425;28;20036;-43
2024/03/28 00:13:52;;;;;;;22.20;5.70;;;;;;;;;;5067885;28;20036;-44
2024/03/28 00:16:18;;;;;;;25.95;6.40;;;;;;;;;;5034470;28;20523;-44
2024/03/28 00:18:43;;;;;;;34.15;6.03;;;;;;;;;;5047972;28;20040;-43
2024/03/28 00:21:09;;;;;;;21.52;7.13;;;;;;;;;;5062788;28;20045;-43
2024/03/28 00:23:34;;;;;;;30.60;6.15;;;;;;;;;;5047754;28;20037;-44
2024/03/28 00:26:00;;;;;;;28.00;7.03;;;;;;;;;;5047218;28;20033;-44
2024/03/28 00:28:26;;;;;;;30.38;6.10;;;;;;;;;;5029503;28;20036;-44
2024/03/28 00:30:52;;;;;;;36.03;6.63;;;;;;;;;;5029245;28;20033;-42
2024/03/28 00:33:18;;;;;;;26.58;6.32;;;;;;;;;;5045740;28;20040;-43
2024/03/28 00:35:45;;;;;;;22.70;7.00;;;;;;;;;;5046815;28;20120;-43
2024/03/28 00:38:11;;;;;;;19.75;6.40;;;;;;;;;;5045607;28;20037;-43
2024/03/28 00:40:37;;;;;;;23.10;5.80;;;;;;;;;;5045926;28;20333;-41
2024/03/28 00:43:03;;;;;;;34.97;6.75;;;;;;;;;;5047824;28;20428;-44
2024/03/28 00:45:29;;;;;;;34.03;7.30;;;;;;;;;;5045929;28;20032;-45
2024/03/28 00:47:55;;;;;;;29.13;6.65;;;;;;;;;;5070097;28;20033;-44
2024/03/28 00:50:21;;;;;;;29.13;6.63;;;;;;;;;;5045853;28;20037;-43
2024/03/28 00:52:47;;;;;;;26.45;6.13;;;;;;;;;;5047025;28;20093;-44
2024/03/28 00:55:13;;;;;;;22.95;6.70;;;;;;;;;;5062186;28;20424;-43
2024/03/28 00:57:39;;;;;;;27.77;5.97;;;;;;;;;;5046095;28;20048;-44
2024/03/28 01:00:05;;;;;;;18.05;5.95;;;;;;;;;;5047699;28;20040;-50
2024/03/28 01:02:31;;;;;;;22.05;4.95;;;;;;;;;;5045526;28;20056;-44
2024/03/28 01:04:57;;;;;;;23.33;6.25;;;;;;;;;;5047291;28;20568;-45
2024/03/28 01:07:23;;;;;;;20.83;6.00;;;;;;;;;;5045817;28;20048;-44
2024/03/28 01:09:49;;;;;;;24.42;5.55;;;;;;;;;;5046835;28;20040;-43
2024/03/28 01:12:14;;;;;;;24.17;6.85;;;;;;;;;;5045348;28;20043;-43
2024/03/28 01:14:40;;;;;;;26.58;6.80;;;;;;;;;;5046634;28;20040;-43
2024/03/28 01:17:06;;;;;;;31.58;5.57;;;;;;;;;;5032998;28;20040;-44
2024/03/28 01:19:32;;;;;;;24.15;6.93;;;;;;;;;;5081949;28;20044;-45
2024/03/28 01:21:58;;;;;;;44.63;7.30;;;;;;;;;;5066396;28;20044;-44
2024/03/28 01:24:23;;;;;;;23.50;6.88;;;;;;;;;;5066162;28;20415;-42
2024/03/28 01:26:49;;;;;;;31.25;6.20;;;;;;;;;;5064795;28;20085;-42
2024/03/28 01:29:15;;;;;;;22.23;5.88;;;;;;;;;;5046404;28;20505;-43
2024/03/28 01:31:41;;;;;;;26.80;7.03;;;;;;;;;;5047091;28;20527;-43
2024/03/28 01:34:07;;;;;;;22.45;6.38;;;;;;;;;;5028826;28;20505;-42
2024/03/28 01:36:34;;;;;;;24.95;6.28;;;;;;;;;;5047233;28;20036;-43
2024/03/28 01:39:00;;;;;;;22.45;5.57;;;;;;;;;;5050618;28;20106;-43
2024/03/28 01:41:25;;;;;;;17.60;6.43;;;;;;;;;;5028303;28;20036;-44
2024/03/28 01:43:51;;;;;;;26.40;6.88;;;;;;;;;;5046063;28;20498;-43
2024/03/28 01:46:17;;;;;;;21.77;5.20;;;;;;;;;;5045919;28;20040;-46
2024/03/28 01:48:43;;;;;;;33.63;5.55;;;;;;;;;;5045828;28;20119;-45
2024/03/28 01:51:09;;;;;;;30.48;5.45;;;;;;;;;;5046761;28;20147;-45
2024/03/28 01:53:35;;;;;;;18.55;5.53;;;;;;;;;;5061578;28;20141;-44
2024/03/28 01:56:01;;;;;;;27.80;5.68;;;;;;;;;;5046005;28;20051;-43
2024/03/28 01:58:27;;;;;;;23.80;5.50;;;;;;;;;;5044068;28;20041;-42
2024/03/28 02:00:53;;;;;;;24.73;5.40;;;;;;;;;;5060830;28;20032;-41
2024/03/28 02:03:19;;;;;;;23.65;5.22;;;;;;;;;;5045885;28;20068;-43
2024/03/28 02:05:45;;;;;;;25.25;6.35;;;;;;;;;;5061413;28;20029;-41
2024/03/28 02:08:11;;;;;;;31.45;6.03;;;;;;;;;;5044438;28;20569;-43
2024/03/28 02:10:37;;;;;;;23.23;6.55;;;;;;;;;;5044474;28;20041;-43
2024/03/28 02:13:03;;;;;;;19.85;6.90;;;;;;;;;;5027665;28;20532;-43
2024/03/28 02:15:29;;;;;;;17.65;5.88;;;;;;;;;;5057351;28;20040;-42
2024/03/28 02:17:56;;;;;;;18.63;5.95;;;;;;;;;;5071208;28;20459;-43
2024/03/28 02:20:22;;;;;;;31.42;6.28;;;;;;;;;;5029665;28;20060;-44
2024/03/28 02:22:48;;;;;;;16.63;5.80;;;;;;;;;;5044549;28;20127;-44
2024/03/28 02:25:14;;;;;;;21.00;5.55;;;;;;;;;;5026984;28;20115;-44
2024/03/28 02:27:40;;;;;;;25.00;6.60;;;;;;;;;;5056007;28;20480;-42
2024/03/28 02:30:07;;;;;;;40.63;5.70;;;;;;;;;;5053623;28;20479;-43
2024/03/28 02:32:33;;;;;;;30.23;6.95;;;;;;;;;;5051346;28;20031;-45
2024/03/28 02:34:59;;;;;;;21.75;6.07;;;;;;;;;;5060883;28;20040;-42
2024/03/28 02:37:25;;;;;;;22.77;5.90;;;;;;;;;;5060485;28;20044;-43
2024/03/28 02:39:50;;;;;;;26.50;5.80;;;;;;;;;;5048562;28;20037;-43
2024/03/28 02:42:16;;;;;;;27.17;6.05;;;;;;;;;;5049825;28;20039;-44
2024/03/28 02:44:41;;;;;;;15.20;5.50;;;;;;;;;;5068388;28;20117;-43
2024/03/28 02:47:07;;;;;;;26.60;5.78;;;;;;;;;;5051055;28;20385;-43
2024/03/28 02:49:33;;;;;;;29.25;7.03;;;;;;;;;;5069367;28;20056;-43
2024/03/28 02:51:58;;;;;;;24.60;6.05;;;;;;;;;;5048872;28;20131;-43
2024/03/28 02:54:24;;;;;;;26.02;6.72;;;;;;;;;;5064342;28;20485;-44
2024/03/28 02:56:51;;;;;;;23.75;6.20;;;;;;;;;;5031095;28;20136;-43
2024/03/28 02:59:17;;;;;;;23.08;5.97;;;;;;;;;;5062902;28;20032;-42
2024/03/28 03:01:43;;;;;;;23.85;6.90;;;;;;;;;;5069413;28;20241;-42
2024/03/28 03:04:08;;;;;;;25.35;6.43;;;;;;;;;;5064231;28;20098;-42
2024/03/28 03:06:34;;;;;;;30.45;6.75;;;;;;;;;;5064773;28;20516;-43
2024/03/28 03:09:00;;;;;;;23.50;6.10;;;;;;;;;;5049698;28;20033;-42
2024/03/28 03:11:26;;;;;;;23.25;7.00;;;;;;;;;;5049159;28;20120;-45
2024/03/28 03:13:52;;;;;;;31.02;6.50;;;;;;;;;;5047671;28;20044;-44
2024/03/28 03:16:18;;;;;;;17.42;5.97;;;;;;;;;;5030716;28;20058;-42
2024/03/28 03:18:44;;;;;;;24.30;7.55;;;;;;;;;;5048742;28;20036;-42
2024/03/28 03:21:10;;;;;;;36.47;7.70;;;;;;;;;;5047039;28;20037;-42
2024/03/28 03:23:37;;;;;;;30.55;6.05;;;;;;;;;;5082965;28;20042;-45
2024/03/28 03:26:11;;;;;;;18.95;7.65;;;;;;;;;;5049805;28;20524;-43
2024/03/28 03:36:51;;;;;;;32.00;7.13;;;;;;;;;;5047035;28;20036;-43
2024/03/28 03:39:17;;;;;;;38.78;8.70;;;;;;;;;;5048505;28;20079;-44
2024/03/28 03:41:43;;;;;;;31.75;7.97;;;;;;;;;;5062536;28;20436;-43
2024/03/28 03:44:09;;;;;;;31.95;8.63;;;;;;;;;;5048603;28;20087;-44
2024/03/28 03:46:35;;;;;;;33.65;8.07;;;;;;;;;;5047079;28;20037;-44
2024/03/28 03:49:01;;;;;;;31.02;7.22;;;;;;;;;;5048123;28;20144;-43
2024/03/28 03:51:27;;;;;;;41.20;8.57;;;;;;;;;;5046216;28;20064;-44
2024/03/28 03:53:52;;;;;;;31.73;7.22;;;;;;;;;;5048182;28;20471;-43
2024/03/28 03:56:18;;;;;;;27.45;9.25;;;;;;;;;;5047218;28;20516;-42
2024/03/28 03:58:44;;;;;;;29.73;8.30;;;;;;;;;;5046936;28;20543;-44
2024/03/28 04:01:09;;;;;;;23.80;7.07;;;;;;;;;;5047830;28;20506;-43
2024/03/28 04:03:35;;;;;;;33.95;6.97;;;;;;;;;;5046389;28;20393;-44
2024/03/28 04:06:01;;;;;;;32.60;7.32;;;;;;;;;;5047028;28;20128;-46
2024/03/28 04:08:27;;;;;;;28.70;7.90;;;;;;;;;;5047910;28;20033;-44
2024/03/28 04:10:53;;;;;;;34.92;7.15;;;;;;;;;;5047691;28;20099;-43
2024/03/28 04:13:19;;;;;;;26.50;7.60;;;;;;;;;;5078447;28;20037;-44
2024/03/28 04:15:45;;;;;;;22.58;7.03;;;;;;;;;;5066600;28;20086;-44
2024/03/28 04:18:11;;;;;;;33.78;7.95;;;;;;;;;;5046833;28;20036;-47
2024/03/28 04:20:40;;;;;;;50.10;7.65;;;;;;;;;;5062977;28;20037;-44
2024/03/28 04:23:06;;;;;;;33.28;6.93;;;;;;;;;;5046438;28;20765;-46
2024/03/28 04:25:33;;;;;;;32.30;8.93;;;;;;;;;;5048492;28;20041;-43
2024/03/28 04:27:58;;;;;;;29.92;8.43;;;;;;;;;;5052094;28;20028;-44
2024/03/28 04:30:35;;;;;;;29.83;6.97;;;;;;;;;;5051280;28;20057;-45
2024/03/28 04:33:02;;;;;;;22.10;7.20;;;;;;;;;;5067543;28;20033;-44
2024/03/28 04:35:27;;;;;;;36.67;8.25;;;;;;;;;;5067518;28;20040;-44
2024/03/28 04:37:53;;;;;;;26.85;8.60;;;;;;;;;;5066012;28;20047;-46
2024/03/28 04:40:20;;;;;;;37.58;9.60;;;;;;;;;;5034660;28;20452;-42
2024/03/28 04:42:50;;;;;;;34.03;8.10;;;;;;;;;;5047957;28;20025;-46
2024/03/28 04:45:17;;;;;;;34.17;7.88;;;;;;;;;;5046807;28;20047;-45
2024/03/28 04:47:50;;;;;;;24.27;8.35;;;;;;;;;;5046194;28;20110;-43
2024/03/28 04:50:17;;;;;;;44.78;9.05;;;;;;;;;;5062855;28;20147;-45
2024/03/28 04:52:43;;;;;;;41.05;9.95;;;;;;;;;;5040232;28;20419;-43
2024/03/28 04:55:08;;;;;;;34.15;8.57;;;;;;;;;;5061795;28;20045;-48
2024/03/28 04:57:34;;;;;;;23.50;9.07;;;;;;;;;;5075673;28;20067;-46
2024/03/28 05:00:00;;;;;;;38.50;10.05;;;;;;;;;;5051753;28;20035;-45
2024/03/28 05:02:26;;;;;;;45.22;9.90;;;;;;;;;;5070498;28;20401;-45
2024/03/28 05:04:52;;;;;;;39.80;9.07;;;;;;;;;;5075437;28;20669;-43
2024/03/28 05:07:17;;;;;;;34.20;8.98;;;;;;;;;;5086766;28;20032;-42
2024/03/28 05:09:46;;;;;;;33.85;9.77;;;;;;;;;;5084997;28;20040;-43
2024/03/28 05:12:13;;;;;;;43.55;10.35;;;;;;;;;;5045044;28;20102;-42
2024/03/28 05:14:39;;;;;;;44.53;10.65;;;;;;;;;;5054945;28;20186;-43
2024/03/28 05:17:06;;;;;;;54.65;11.48;;;;;;;;;;5066334;28;20519;-44
2024/03/28 05:19:32;;;;;;;49.75;10.40;;;;;;;;;;5048026;28;20530;-48
2024/03/28 05:21:58;;;;;;;39.42;9.82;;;;;;;;;;5049648;28;20124;-44
2024/03/28 05:24:24;;;;;;;39.10;9.95;;;;;;;;;;5061102;28;20124;-44
2024/03/28 05:26:50;;;;;;;38.50;10.68;;;;;;;;;;5045332;28;20037;-44
2024/03/28 05:29:16;;;;;;;47.90;11.25;;;;;;;;;;5056152;28;20059;-43
2024/03/28 05:31:41;;;;;;;38.15;8.63;;;;;;;;;;5077592;28;20036;-45
2024/03/28 05:34:07;;;;;;;40.63;9.27;;;;;;;;;;5068005;28;20039;-45
2024/03/28 05:36:36;;;;;;;34.20;8.60;;;;;;;;;;5072139;28;20051;-43
2024/03/28 05:39:05;;;;;;;30.48;10.43;;;;;;;;;;5068038;28;20564;-43
2024/03/28 05:41:31;;;;;;;37.40;9.07;;;;;;;;;;5042477;28;20131;-48
2024/03/28 05:43:58;;;;;;;28.88;8.45;;;;;;;;;;5044404;28;20071;-45
2024/03/28 05:46:24;;;;;;;43.33;10.13;;;;;;;;;;5060997;28;20125;-45
2024/03/28 05:48:50;;;;;;;30.10;9.13;;;;;;;;;;5044759;28;20522;-44
2024/03/28 05:51:15;;;;;;;30.23;9.20;;;;;;;;;;5046232;28;20516;-46
2024/03/28 05:53:48;;;;;;;44.70;10.43;;;;;;;;;;5070584;28;20055;-45
2024/03/28 05:56:15;;;;;;;31.30;9.68;;;;;;;;;;5084841;28;20039;-43
2024/03/28 05:58:41;;;;;;;39.72;9.98;;;;;;;;;;5071147;28;20042;-46
2024/03/28 06:01:06;;;;;;;35.50;9.13;;;;;;;;;;5064283;28;20036;-45
2024/03/28 06:03:32;;;;;;;22.63;7.72;;;;;;;;;;5048264;28;20041;-44
2024/03/28 06:05:58;;;;;;;29.60;9.48;;;;;;;;;;5079705;28;20041;-46
2024/03/28 06:08:24;;;;;;;33.75;7.38;;;;;;;;;;5064437;28;20120;-46
2024/03/28 06:10:50;;;;;;;28.50;8.43;;;;;;;;;;5064446;28;20050;-44
2024/03/28 06:13:16;;;;;;;12.75;3.78;;;;;;;;;;5054269;28;20432;-47
2024/03/28 06:15:42;;;;;;;13.27;4.15;;;;;;;;;;5045964;28;20048;-47
2024/03/28 06:18:07;;;;;;;8.75;3.42;;;;;;;;;;5045734;28;20021;-46
2024/03/28 06:20:33;;;;;;;11.10;4.05;;;;;;;;;;5044197;28;20051;-47
2024/03/28 06:22:59;;;;;;;14.45;3.78;;;;;;;;;;5045072;28;20086;-45
2024/03/28 06:25:24;;;;;;;12.68;4.18;;;;;;;;;;5048793;28;20040;-49
2024/03/28 06:27:50;;;;;;;6.93;3.30;;;;;;;;;;5041714;28;20028;-44
2024/03/28 06:30:25;;;;;;;10.80;3.67;;;;;;;;;;5060356;28;20094;-46
2024/03/28 06:32:51;;;;;;;15.82;4.15;;;;;;;;;;5048983;28;20025;-48
2024/03/28 06:35:17;;;;;;;9.38;4.00;;;;;;;;;;5050284;28;20174;-44
2024/03/28 06:37:43;;;;;;;9.50;4.35;;;;;;;;;;5046377;28;20056;-50
2024/03/28 06:40:09;;;;;;;13.10;5.60;;;;;;;;;;5062187;28;20035;-44
2024/03/28 06:42:35;;;;;;;10.57;4.15;;;;;;;;;;5065207;28;20036;-48
2024/03/28 06:45:01;;;;;;;12.48;4.32;;;;;;;;;;5076274;28;20036;-44
2024/03/28 06:47:30;;;;;;;;;;;;;;;;;;5056172;28;20504;-43
2024/03/28 06:49:56;;;;;;;10.68;4.05;;;;;;;;;;5081860;28;19955;-48
2024/03/28 06:52:22;;;;;;;9.35;4.35;;;;;;;;;;5068148;28;20040;-46
2024/03/28 06:54:48;;;;;;;10.48;4.20;;;;;;;;;;5045551;28;20676;-47
2024/03/28 06:57:14;;;;;;;9.30;4.32;;;;;;;;;;5060613;28;20048;-47
2024/03/28 06:59:39;;;;;;;7.68;3.55;;;;;;;;;;5043105;28;20032;-46
2024/03/28 07:02:05;;;;;;;11.05;3.60;;;;;;;;;;5060237;28;20044;-47
2024/03/28 07:04:31;;;;;;;7.85;3.03;;;;;;;;;;5060694;28;20037;-45
2024/03/28 07:06:57;;;;;;;7.90;3.75;;;;;;;;;;5053789;28;20033;-47
2024/03/28 07:09:22;;;;;;;14.10;4.22;;;;;;;;;;5065341;28;20479;-44
2024/03/28 07:11:48;;;;;;;9.95;3.80;;;;;;;;;;5054338;28;20036;-46
2024/03/28 07:14:16;;;;;;;12.05;3.70;;;;;;;;;;5049235;28;20037;-48
2024/03/28 07:16:42;;;;;;;9.65;3.50;;;;;;;;;;5050413;28;20033;-45
2024/03/28 07:19:08;;;;;;;10.25;3.65;;;;;;;;;;5068905;28;20040;-45
2024/03/28 07:21:33;;;;;;;10.82;3.97;;;;;;;;;;5050071;28;20044;-45
2024/03/28 07:23:59;;;;;;;22.83;4.20;;;;;;;;;;5065508;28;20035;-44
2024/03/28 07:26:25;;;;;;;10.50;3.15;;;;;;;;;;5049572;28;20071;-47
2024/03/28 07:28:51;;;;;;;7.53;3.20;;;;;;;;;;5067524;28;20032;-45
2024/03/28 07:31:16;;;;;;;9.07;2.75;;;;;;;;;;5066446;28;20401;-45
2024/03/28 07:33:44;;;;;;;13.48;2.80;;;;;;;;;;5048722;28;20041;-46
2024/03/28 07:36:11;;;;;;;12.03;3.10;;;;;;;;;;5047183;28;20178;-46
2024/03/28 07:38:37;;;;;;;7.32;2.67;;;;;;;;;;5048753;28;20706;-45
2024/03/28 07:41:03;;;;;;;5.07;2.45;;;;;;;;;;5047046;28;20175;-45
2024/03/28 07:43:29;;;;;;;5.35;2.15;;;;;;;;;;5047019;28;20116;-45
2024/03/28 07:46:01;;;;;;;7.25;3.15;;;;;;;;;;5047350;28;20412;-43
2024/03/28 07:48:27;;;;;;;8.02;2.65;;;;;;;;;;5048955;28;20393;-45
2024/03/28 07:50:59;;;;;;;7.50;3.00;;;;;;;;;;5048132;28;20044;-46
2024/03/28 07:53:27;;;;;;;7.78;2.63;;;;;;;;;;5048493;28;20045;-47
2024/03/28 07:55:53;;;;;;;8.70;3.03;;;;;;;;;;5046875;28;20040;-45
2024/03/28 07:58:19;;;;;;;7.30;3.20;;;;;;;;;;5046867;28;20078;-44
2024/03/28 08:00:45;;;;;;;11.68;2.50;;;;;;;;;;5047933;28;20032;-46
2024/03/28 08:03:14;;;;;;;7.97;2.40;;;;;;;;;;5048381;28;20487;-46
2024/03/28 08:05:40;;;;;;;5.10;2.00;;;;;;;;;;5065323;28;20035;-44
2024/03/28 08:08:06;;;;;;;5.13;2.00;;;;;;;;;;5078694;28;20086;-46
2024/03/28 08:10:32;;;;;;;5.55;2.33;;;;;;;;;;5075076;28;20409;-46
2024/03/28 08:12:58;;;;;;;4.82;2.20;;;;;;;;;;5065604;28;20036;-45
2024/03/28 08:15:25;;;;;;;5.40;2.53;;;;;;;;;;5076731;28;20044;-50
2024/03/28 08:17:51;;;;;;;7.35;2.38;;;;;;;;;;5074574;28;20489;-44
2024/03/28 08:20:17;;;;;;;5.88;2.00;;;;;;;;;;5073113;28;20040;-46
2024/03/28 08:22:43;;;;;;;7.70;2.33;;;;;;;;;;5098972;28;20503;-45
2024/03/28 08:25:09;;;;;;;4.32;1.90;;;;;;;;;;5057607;28;20032;-45
2024/03/28 08:27:36;;;;;;;6.95;2.28;;;;;;;;;;5069228;28;20361;-45
2024/03/28 08:30:02;;;;;;;7.75;1.98;;;;;;;;;;5066377;28;20021;-46
2024/03/28 08:32:29;;;;;;;7.35;2.20;;;;;;;;;;5050831;28;20127;-47
2024/03/28 08:34:55;;;;;;;6.00;2.40;;;;;;;;;;5047245;28;20765;-45
2024/03/28 08:37:21;;;;;;;5.20;2.22;;;;;;;;;;5047443;28;20037;-45
2024/03/28 08:39:47;;;;;;;7.55;2.33;;;;;;;;;;5046570;28;20047;-46
2024/03/28 08:42:13;;;;;;;5.18;2.20;;;;;;;;;;5045962;28;20036;-45
2024/03/28 08:44:38;;;;;;;6.72;2.30;;;;;;;;;;5045948;28;20393;-46
2024/03/28 08:47:04;;;;;;;3.80;2.15;;;;;;;;;;5052171;28;20052;-45
2024/03/28 08:49:30;;;;;;;6.65;2.50;;;;;;;;;;5049136;28;20854;-44
2024/03/28 08:51:56;;;;;;;11.80;2.78;;;;;;;;;;5062044;28;20098;-44
2024/03/28 08:54:24;;;;;;;5.90;2.17;;;;;;;;;;5029114;28;20059;-48
2024/03/28 08:56:50;;;;;;;3.78;2.10;;;;;;;;;;5062112;28;20041;-45
2024/03/28 08:59:19;;;;;;;8.13;2.70;;;;;;;;;;5046937;28;20135;-45
2024/03/28 09:01:45;;;;;;;3.65;2.05;;;;;;;;;;5046920;28;20076;-43
2024/03/28 09:04:14;;;;;;;11.70;2.85;;;;;;;;;;5046841;28;20783;-43
2024/03/28 09:06:39;;;;;;;6.18;2.28;;;;;;;;;;5046702;28;20029;-45
2024/03/28 09:09:07;;;;;;;5.40;3.17;;;;;;;;;;5045284;28;20085;-44
2024/03/28 09:11:33;;;;;;;6.38;2.60;;;;;;;;;;5046973;28;20028;-44
2024/03/28 09:13:59;;;;;;;4.82;2.10;;;;;;;;;;5062055;28;20428;-45
2024/03/28 09:16:26;;;;;;;5.95;2.33;;;;;;;;;;5046972;28;20048;-42
2024/03/28 09:18:51;;;;;;;5.60;2.40;;;;;;;;;;5046777;28;20048;-43
2024/03/28 09:21:17;;;;;;;5.70;2.90;;;;;;;;;;5045165;28;20037;-45
2024/03/28 09:23:43;;;;;;;7.82;2.72;;;;;;;;;;5044041;28;20041;-46
2024/03/28 09:26:09;;;;;;;7.22;2.72;;;;;;;;;;5062068;28;20033;-47
2024/03/28 09:28:35;;;;;;;5.97;2.67;;;;;;;;;;5045341;28;20040;-46
2024/03/28 09:31:01;;;;;;;5.10;2.58;;;;;;;;;;5045474;28;20040;-46
2024/03/28 09:33:27;;;;;;;4.57;2.22;;;;;;;;;;5045501;28;20412;-45
2024/03/28 09:35:54;;;;;;;4.72;2.08;;;;;;;;;;5046526;28;20059;-44
2024/03/28 09:38:19;;;;;;;7.28;2.75;;;;;;;;;;5064392;28;20121;-45
2024/03/28 09:40:50;;;;;;;6.72;2.67;;;;;;;;;;5064739;28;20665;-43
2024/03/28 09:43:16;;;;;;;7.13;3.10;;;;;;;;;;5064168;28;20522;-45
2024/03/28 09:45:42;;;;;;;8.75;3.35;;;;;;;;;;5044652;28;20037;-45
2024/03/28 09:48:08;;;;;;;8.45;3.03;;;;;;;;;;5063073;28;20123;-44
2024/03/28 09:50:35;;;;;;;8.73;3.30;;;;;;;;;;5064811;28;20190;-46
2024/03/28 09:53:01;;;;;;;10.60;4.22;;;;;;;;;;5066355;28;20029;-45
2024/03/28 09:55:27;;;;;;;7.72;3.53;;;;;;;;;;5032798;28;20025;-45
2024/03/28 09:57:53;;;;;;;9.30;4.07;;;;;;;;;;5044836;28;20060;-46
2024/03/28 10:00:18;;;;;;;11.80;3.50;;;;;;;;;;5045785;28;20493;-49
2024/03/28 10:02:53;;;;;;;9.45;3.95;;;;;;;;;;5027859;28;20576;-48
2024/03/28 10:05:19;;;;;;;7.45;4.00;;;;;;;;;;5044250;28;20128;-46
2024/03/28 10:07:48;;;;;;;9.18;4.15;;;;;;;;;;5044581;28;20120;-44
2024/03/28 10:10:14;;;;;;;11.18;4.10;;;;;;;;;;5046025;28;20132;-45
2024/03/28 10:12:50;;;;;;;8.55;3.58;;;;;;;;;;5044234;28;20124;-48
2024/03/28 10:15:15;;;;;;;7.82;3.70;;;;;;;;;;5044327;28;20064;-47
2024/03/28 10:17:41;;;;;;;6.38;3.20;;;;;;;;;;5046509;28;20531;-45
2024/03/28 10:20:10;;;;;;;8.10;3.10;;;;;;;;;;5081434;28;20512;-45
2024/03/28 10:22:52;;;;;;;6.22;3.10;;;;;;;;;;5053495;28;20081;-45
2024/03/28 10:25:19;;;;;;;9.73;3.80;;;;;;;;;;5059056;28;20449;-45
2024/03/28 10:27:45;;;;;;;9.45;3.80;;;;;;;;;;5061430;28;20557;-46
2024/03/28 10:30:11;;;;;;;7.45;3.40;;;;;;;;;;5063158;28;20024;-44
2024/03/28 10:32:37;;;;;;;8.13;3.35;;;;;;;;;;5070837;28;20044;-45
2024/03/28 10:35:03;;;;;;;12.45;3.75;;;;;;;;;;5076355;28;20093;-47
2024/03/28 10:37:29;;;;;;;9.05;2.80;;;;;;;;;;5071855;28;20039;-46
2024/03/28 10:39:55;;;;;;;8.25;3.33;;;;;;;;;;5074921;28;20039;-46
2024/03/28 10:42:21;;;;;;;9.35;3.22;;;;;;;;;;5073875;28;20086;-45
2024/03/28 10:44:48;;;;;;;7.30;3.38;;;;;;;;;;5074626;28;20410;-51
2024/03/28 10:47:15;;;;;;;9.80;3.70;;;;;;;;;;5072370;28;20032;-48
2024/03/28 10:49:44;;;;;;;8.37;2.90;;;;;;;;;;5071907;28;20032;-46
2024/03/28 10:52:15;;;;;;;5.90;3.20;;;;;;;;;;5068294;28;20029;-48
2024/03/28 10:54:45;;;;;;;10.55;3.15;;;;;;;;;;5069797;28;20528;-46
2024/03/28 10:57:11;;;;;;;9.80;3.58;;;;;;;;;;5055775;28;20040;-47
2024/03/28 10:59:39;;;;;;;7.35;2.78;;;;;;;;;;5064829;28;20045;-46
2024/03/28 11:02:05;;;;;;;7.15;2.45;;;;;;;;;;5047693;28;20082;-49
2024/03/28 11:04:31;;;;;;;5.55;2.90;;;;;;;;;;5047383;28;20799;-47
2024/03/28 11:06:57;;;;;;;6.40;2.25;;;;;;;;;;5047481;28;20104;-46
2024/03/28 11:09:24;;;;;;;11.05;2.70;;;;;;;;;;5049504;28;20128;-48
2024/03/28 11:11:56;;;;;;;6.40;2.28;;;;;;;;;;5047993;28;20162;-46
2024/03/28 11:14:22;;;;;;;7.07;2.28;;;;;;;;;;5064273;28;20079;-47
2024/03/28 11:16:48;;;;;;;6.13;2.50;;;;;;;;;;5047020;28;20145;-46
2024/03/28 11:19:16;;;;;;;6.25;2.33;;;;;;;;;;5047300;28;20654;-48
2024/03/28 11:21:42;;;;;;;5.30;2.60;;;;;;;;;;5046914;28;20051;-46
2024/03/28 11:24:22;;;;;;;13.25;2.72;;;;;;;;;;5050318;28;20032;-46
2024/03/28 11:26:54;;;;;;;9.63;3.55;;;;;;;;;;5058969;28;20043;-49
2024/03/28 11:29:23;;;;;;;8.77;2.50;;;;;;;;;;5048812;28;20035;-49
2024/03/28 11:31:59;;;;;;;9.75;2.92;;;;;;;;;;5048538;28;20036;-50
2024/03/28 11:34:25;;;;;;;6.20;2.38;;;;;;;;;;5063491;28;20037;-46
2024/03/28 11:36:57;;;;;;;6.55;3.20;;;;;;;;;;5046700;28;20068;-47
2024/03/28 11:39:24;;;;;;;9.25;3.28;;;;;;;;;;5063612;28;20098;-51
2024/03/28 11:41:50;;;;;;;5.75;2.22;;;;;;;;;;5063594;28;20040;-47
2024/03/28 11:44:22;;;;;;;9.73;2.83;;;;;;;;;;5047364;28;20044;-46
2024/03/28 11:46:57;;;;;;;7.88;2.90;;;;;;;;;;5063733;28;20028;-52
2024/03/28 11:49:23;;;;;;;7.80;2.90;;;;;;;;;;5041336;28;20125;-46
2024/03/28 11:51:49;;;;;;;6.90;2.72;;;;;;;;;;5048533;28;20131;-49
2024/03/28 11:54:18;;;;;;;6.18;3.38;;;;;;;;;;5048579;28;20028;-46
2024/03/28 11:56:44;;;;;;;6.68;2.95;;;;;;;;;;5047424;28;20128;-47
2024/03/28 11:59:20;;;;;;;8.65;2.95;;;;;;;;;;5048009;28;20588;-49
2024/03/28 12:01:46;;;;;;;5.80;2.40;;;;;;;;;;5045634;28;20132;-44
2024/03/28 12:04:20;;;;;;;4.70;2.50;;;;;;;;;;5030130;28;20033;-45
2024/03/28 12:06:46;;;;;;;4.28;2.42;;;;;;;;;;5063380;28;20041;-47
2024/03/28 12:09:12;;;;;;;7.38;2.85;;;;;;;;;;5047853;28;20037;-47
2024/03/28 12:11:38;;;;;;;5.57;2.72;;;;;;;;;;5063087;28;20072;-45
2024/03/28 12:14:03;;;;;;;7.03;2.80;;;;;;;;;;5047761;28;20127;-47
2024/03/28 12:16:29;;;;;;;6.40;2.60;;;;;;;;;;5046367;28;20032;-48
2024/03/28 12:19:03;;;;;;;4.28;2.28;;;;;;;;;;5062512;28;20045;-46
2024/03/28 12:21:29;;;;;;;6.30;2.75;;;;;;;;;;5074060;28;20036;-46
2024/03/28 12:23:54;;;;;;;5.45;2.85;;;;;;;;;;5064752;28;20087;-47
2024/03/28 12:26:21;;;;;;;5.70;2.65;;;;;;;;;;5052014;28;20389;-47
2024/03/28 12:28:47;;;;;;;5.55;2.70;;;;;;;;;;5065780;28;20419;-46
2024/03/28 12:31:20;;;;;;;6.50;2.33;;;;;;;;;;5050933;28;20489;-45
2024/03/28 12:33:46;;;;;;;9.35;2.60;;;;;;;;;;5029646;28;20025;-53
2024/03/28 12:36:14;;;;;;;7.60;2.42;;;;;;;;;;5046591;28;20790;-50
2024/03/28 12:38:44;;;;;;;4.50;2.45;;;;;;;;;;5046839;28;20126;-47
2024/03/28 12:41:17;;;;;;;6.75;2.90;;;;;;;;;;5047400;28;20037;-46
2024/03/28 12:43:42;;;;;;;6.70;2.10;;;;;;;;;;5047975;28;20524;-48
2024/03/28 12:46:08;;;;;;;9.20;2.90;;;;;;;;;;5047705;28;20029;-46
2024/03/28 12:48:34;;;;;;;5.75;2.35;;;;;;;;;;5047738;28;20044;-46
2024/03/28 12:51:00;;;;;;;7.35;3.35;;;;;;;;;;5063439;28;20457;-48
2024/03/28 12:53:25;;;;;;;6.07;2.78;;;;;;;;;;5076999;28;20524;-47
2024/03/28 12:55:51;;;;;;;8.82;2.70;;;;;;;;;;5085090;28;20090;-49
2024/03/28 12:58:17;;;;;;;9.10;2.47;;;;;;;;;;5060310;28;20496;-46
2024/03/28 13:00:43;;;;;;;8.48;3.20;;;;;;;;;;5069659;28;20033;-50
2024/03/28 13:03:09;;;;;;;5.32;2.42;;;;;;;;;;5065287;28;20507;-48
2024/03/28 13:05:34;;;;;;;5.75;2.55;;;;;;;;;;5062591;28;20042;-50
2024/03/28 13:08:01;;;;;;;4.55;2.65;;;;;;;;;;5075539;28;20032;-47
2024/03/28 13:10:28;;;;;;;10.43;2.50;;;;;;;;;;5078855;28;20039;-46
2024/03/28 13:12:53;;;;;;;8.30;2.50;;;;;;;;;;5054383;28;20039;-49
2024/03/28 13:15:19;;;;;;;4.13;2.20;;;;;;;;;;5074179;28;20024;-48
2024/03/28 13:17:45;;;;;;;6.68;1.98;;;;;;;;;;5076439;28;20036;-44
2024/03/28 13:20:13;;;;;;;4.93;2.28;;;;;;;;;;5058660;28;20028;-47
2024/03/28 13:22:39;;;;;;;8.32;2.65;;;;;;;;;;5071177;28;20037;-48
2024/03/28 13:25:05;;;;;;;9.18;2.63;;;;;;;;;;5063260;28;20037;-49
2024/03/28 13:27:31;;;;;;;8.82;2.50;;;;;;;;;;5057431;28;20043;-47
2024/03/28 13:29:57;;;;;;;7.53;1.98;;;;;;;;;;5073753;28;20427;-46
2024/03/28 13:32:22;;;;;;;5.97;2.78;;;;;;;;;;5072200;28;20046;-46
2024/03/28 13:34:48;;;;;;;5.10;2.58;;;;;;;;;;5075876;28;20433;-47
2024/03/28 13:37:17;;;;;;;6.50;2.65;;;;;;;;;;5074553;28;20051;-47
2024/03/28 13:39:42;;;;;;;6.75;2.78;;;;;;;;;;5076824;28;20143;-48
2024/03/28 13:42:09;;;;;;;7.03;2.63;;;;;;;;;;5071261;28;20043;-49
2024/03/28 13:44:35;;;;;;;6.55;3.00;;;;;;;;;;5075497;28;20036;-49
2024/03/28 13:47:01;;;;;;;6.43;2.58;;;;;;;;;;5073366;28;20048;-47
2024/03/28 13:49:27;;;;;;;11.25;3.05;;;;;;;;;;5075753;28;20083;-46
2024/03/28 13:51:53;;;;;;;9.05;2.80;;;;;;;;;;5074722;28;20127;-49
2024/03/28 13:54:19;;;;;;;7.43;2.97;;;;;;;;;;5072313;28;20493;-52
2024/03/28 13:56:45;;;;;;;6.97;3.35;;;;;;;;;;5066034;28;20531;-47
2024/03/28 13:59:11;;;;;;;7.20;2.75;;;;;;;;;;5047939;28;20055;-47
2024/03/28 14:01:41;;;;;;;4.55;3.17;;;;;;;;;;5045925;28;20037;-47
2024/03/28 14:04:08;;;;;;;10.63;3.03;;;;;;;;;;5065492;28;20155;-47
2024/03/28 14:06:35;;;;;;;6.80;2.97;;;;;;;;;;5074170;28;20039;-47
2024/03/28 14:09:01;;;;;;;9.80;3.38;;;;;;;;;;5064222;28;20466;-48
2024/03/28 14:11:27;;;;;;;8.00;3.83;;;;;;;;;;5053129;28;20035;-50
2024/03/28 14:13:53;;;;;;;12.73;3.40;;;;;;;;;;5067653;28;20093;-47
2024/03/28 14:16:19;;;;;;;8.10;3.13;;;;;;;;;;5085009;28;20039;-47
2024/03/28 14:18:45;;;;;;;7.32;2.80;;;;;;;;;;5084825;28;20039;-47
2024/03/28 14:21:10;;;;;;;8.23;3.05;;;;;;;;;;5066018;28;20056;-48
2024/03/28 14:23:37;;;;;;;9.80;3.10;;;;;;;;;;5061211;28;20541;-46
2024/03/28 14:26:03;;;;;;;5.97;3.00;;;;;;;;;;5046689;28;20037;-48
2024/03/28 14:28:29;;;;;;;10.68;3.08;;;;;;;;;;5066190;28;20036;-49
2024/03/28 14:30:55;;;;;;;9.30;3.20;;;;;;;;;;5060885;28;20048;-50
2024/03/28 14:33:21;;;;;;;15.32;3.42;;;;;;;;;;5045663;28;20056;-47
2024/03/28 14:35:47;;;;;;;10.73;3.35;;;;;;;;;;5059750;28;20552;-47
2024/03/28 14:38:13;;;;;;;9.43;3.40;;;;;;;;;;5069462;28;20102;-46
2024/03/28 14:40:39;;;;;;;8.57;3.45;;;;;;;;;;5063716;28;20594;-48